Terminal Aerodrome Forecast
Issued by NWS

Home | Current Version | Previous Version | Text Only | Print | Product List | Glossary On
Versions: 1 2 3 4 5 6 7 8 9 10 11 12 13 14 15 16 17
000
FTUS46 KSEW 231100
TAFPAE
TAF
KPAE 231123Z 2312/2412 17005KT P6SM -SHRA BKN050 OVC080
     FM232000 18010KT P6SM -RA OVC035
     FM240200 18012KT 6SM -RA BR OVC027
     FM240800 18012G18KT 5SM RA BR OVC020=

USA.gov is the U.S. government's official web portal to all federal, state and local government web resources and services.